sensor_id;sensor_type;location;lat;lon;timestamp;P1;durP1;ratioP1;P2;durP2;ratioP2
9264;SDS011;4669;49.594;10.958;2022-12-05T05:30:13;10.82;;;8.85;;
9264;SDS011;4669;49.594;10.958;2022-12-05T05:35:15;10.35;;;8.40;;
9264;SDS011;4669;49.594;10.958;2022-12-05T05:40:18;12.45;;;8.88;;
9264;SDS011;4669;49.594;10.958;2022-12-05T05:45:21;9.57;;;7.85;;
9264;SDS011;4669;49.594;10.958;2022-12-05T05:50:23;7.88;;;7.05;;
9264;SDS011;4669;49.594;10.958;2022-12-05T05:55:25;7.80;;;7.07;;
9264;SDS011;4669;49.594;10.958;2022-12-05T06:00:29;9.55;;;7.80;;
9264;SDS011;4669;49.594;10.958;2022-12-05T06:05:31;9.70;;;7.03;;
9264;SDS011;4669;49.594;10.958;2022-12-05T06:10:33;9.23;;;7.68;;
9264;SDS011;4669;49.594;10.958;2022-12-05T06:15:37;9.77;;;8.00;;
9264;SDS011;4669;49.594;10.958;2022-12-05T06:20:39;8.40;;;7.30;;
9264;SDS011;4669;49.594;10.958;2022-12-05T06:25:45;10.02;;;9.02;;
9264;SDS011;4669;49.594;10.958;2022-12-05T06:30:49;10.07;;;8.32;;
9264;SDS011;4669;49.594;10.958;2022-12-05T06:36:00;11.02;;;9.32;;
9264;SDS011;4669;49.594;10.958;2022-12-05T06:41:03;10.57;;;9.48;;
9264;SDS011;4669;49.594;10.958;2022-12-05T06:46:07;11.63;;;9.88;;
9264;SDS011;4669;49.594;10.958;2022-12-05T06:51:11;14.23;;;10.82;;
9264;SDS011;4669;49.594;10.958;2022-12-05T06:56:15;15.90;;;12.13;;
9264;SDS011;4669;49.594;10.958;2022-12-05T07:01:21;16.20;;;12.43;;
9264;SDS011;4669;49.594;10.958;2022-12-05T07:06:41;18.42;;;13.30;;
9264;SDS011;4669;49.594;10.958;2022-12-05T07:11:45;17.92;;;14.15;;
9264;SDS011;4669;49.594;10.958;2022-12-05T07:16:49;18.50;;;13.85;;
9264;SDS011;4669;49.594;10.958;2022-12-05T07:21:51;18.58;;;13.63;;
9264;SDS011;4669;49.594;10.958;2022-12-05T07:26:53;21.95;;;14.32;;
9264;SDS011;4669;49.594;10.958;2022-12-05T07:31:57;19.77;;;14.93;;
9264;SDS011;4669;49.594;10.958;2022-12-05T07:36:59;20.48;;;14.98;;
9264;SDS011;4669;49.594;10.958;2022-12-05T07:42:01;19.13;;;14.15;;
9264;SDS011;4669;49.594;10.958;2022-12-05T07:47:05;23.45;;;16.52;;
9264;SDS011;4669;49.594;10.958;2022-12-05T07:52:07;24.77;;;17.73;;
9264;SDS011;4669;49.594;10.958;2022-12-05T07:57:09;28.08;;;17.35;;
9264;SDS011;4669;49.594;10.958;2022-12-05T08:02:12;25.50;;;18.75;;
9264;SDS011;4669;49.594;10.958;2022-12-05T08:07:15;25.67;;;19.95;;
9264;SDS011;4669;49.594;10.958;2022-12-05T08:12:17;23.33;;;15.68;;
9264;SDS011;4669;49.594;10.958;2022-12-05T08:17:20;23.30;;;17.73;;
9264;SDS011;4669;49.594;10.958;2022-12-05T08:22:22;22.52;;;16.00;;
9264;SDS011;4669;49.594;10.958;2022-12-05T08:27:24;23.48;;;17.08;;
9264;SDS011;4669;49.594;10.958;2022-12-05T08:32:27;22.05;;;17.40;;
9264;SDS011;4669;49.594;10.958;2022-12-05T08:37:29;22.85;;;16.05;;
9264;SDS011;4669;49.594;10.958;2022-12-05T08:42:31;22.45;;;16.10;;
9264;SDS011;4669;49.594;10.958;2022-12-05T08:47:35;23.92;;;17.48;;
9264;SDS011;4669;49.594;10.958;2022-12-05T08:52:37;20.38;;;15.98;;
9264;SDS011;4669;49.594;10.958;2022-12-05T08:57:38;20.70;;;15.25;;
9264;SDS011;4669;49.594;10.958;2022-12-05T09:02:42;20.63;;;15.05;;
9264;SDS011;4669;49.594;10.958;2022-12-05T09:07:44;50.92;;;17.52;;
9264;SDS011;4669;49.594;10.958;2022-12-05T09:12:46;21.52;;;16.13;;
9264;SDS011;4669;49.594;10.958;2022-12-05T09:17:51;48.42;;;17.77;;
9264;SDS011;4669;49.594;10.958;2022-12-05T09:22:53;29.42;;;17.20;;
9264;SDS011;4669;49.594;10.958;2022-12-05T09:27:55;21.08;;;14.95;;
9264;SDS011;4669;49.594;10.958;2022-12-05T09:32:59;23.65;;;15.57;;
9264;SDS011;4669;49.594;10.958;2022-12-05T09:38:00;26.98;;;15.50;;
9264;SDS011;4669;49.594;10.958;2022-12-05T09:43:03;22.10;;;15.95;;
9264;SDS011;4669;49.594;10.958;2022-12-05T09:48:10;21.25;;;14.77;;
9264;SDS011;4669;49.594;10.958;2022-12-05T09:53:17;22.45;;;16.45;;
9264;SDS011;4669;49.594;10.958;2022-12-05T09:58:29;22.25;;;15.93;;
9264;SDS011;4669;49.594;10.958;2022-12-05T10:03:42;20.08;;;15.55;;
9264;SDS011;4669;49.594;10.958;2022-12-05T10:08:54;20.75;;;15.38;;
9264;SDS011;4669;49.594;10.958;2022-12-05T10:14:11;18.73;;;14.95;;
9264;SDS011;4669;49.594;10.958;2022-12-05T10:19:22;22.85;;;16.08;;
9264;SDS011;4669;49.594;10.958;2022-12-05T10:24:30;20.02;;;15.18;;
9264;SDS011;4669;49.594;10.958;2022-12-05T10:29:37;21.63;;;14.98;;
9264;SDS011;4669;49.594;10.958;2022-12-05T10:34:46;21.60;;;15.90;;
9264;SDS011;4669;49.594;10.958;2022-12-05T10:39:50;20.38;;;15.52;;
9264;SDS011;4669;49.594;10.958;2022-12-05T10:44:55;20.25;;;15.05;;
9264;SDS011;4669;49.594;10.958;2022-12-05T10:50:03;22.30;;;15.60;;
9264;SDS011;4669;49.594;10.958;2022-12-05T10:55:21;18.30;;;14.80;;
9264;SDS011;4669;49.594;10.958;2022-12-05T11:00:24;21.48;;;14.35;;
9264;SDS011;4669;49.594;10.958;2022-12-05T11:05:32;23.60;;;15.10;;
9264;SDS011;4669;49.594;10.958;2022-12-05T11:10:36;20.27;;;15.02;;
9264;SDS011;4669;49.594;10.958;2022-12-05T11:15:43;20.50;;;15.52;;
9264;SDS011;4669;49.594;10.958;2022-12-05T11:20:47;19.85;;;14.77;;
9264;SDS011;4669;49.594;10.958;2022-12-05T11:25:50;25.65;;;16.52;;
9264;SDS011;4669;49.594;10.958;2022-12-05T11:30:55;21.67;;;15.85;;
9264;SDS011;4669;49.594;10.958;2022-12-05T11:36:02;20.25;;;15.65;;
9264;SDS011;4669;49.594;10.958;2022-12-05T11:46:44;22.92;;;16.17;;
9264;SDS011;4669;49.594;10.958;2022-12-05T11:51:59;19.88;;;15.15;;
9264;SDS011;4669;49.594;10.958;2022-12-05T11:57:09;22.70;;;16.30;;
9264;SDS011;4669;49.594;10.958;2022-12-05T12:02:22;19.30;;;15.52;;
9264;SDS011;4669;49.594;10.958;2022-12-05T12:07:41;21.45;;;15.02;;
9264;SDS011;4669;49.594;10.958;2022-12-05T12:13:04;20.08;;;14.73;;
9264;SDS011;4669;49.594;10.958;2022-12-05T12:18:23;20.75;;;;;
9264;SDS011;4669;49.594;10.958;2022-12-05T12:23:45;22.48;;;16.13;;
9264;SDS011;4669;49.594;10.958;2022-12-05T12:29:02;19.92;;;16.20;;
9264;SDS011;4669;49.594;10.958;2022-12-05T12:34:18;23.45;;;15.52;;
9264;SDS011;4669;49.594;10.958;2022-12-05T12:39:37;27.85;;;18.52;;
9264;SDS011;4669;49.594;10.958;2022-12-05T12:44:56;26.67;;;18.27;;
9264;SDS011;4669;49.594;10.958;2022-12-05T12:50:14;26.48;;;18.50;;
9264;SDS011;4669;49.594;10.958;2022-12-05T12:55:21;28.70;;;20.48;;
9264;SDS011;4669;49.594;10.958;2022-12-05T13:00:30;26.80;;;19.42;;
9264;SDS011;4669;49.594;10.958;2022-12-05T13:05:45;20.02;;;15.82;;
9264;SDS011;4669;49.594;10.958;2022-12-05T13:10:51;17.48;;;14.48;;
9264;SDS011;4669;49.594;10.958;2022-12-05T13:15:55;17.20;;;13.95;;
9264;SDS011;4669;49.594;10.958;2022-12-05T13:21:00;15.77;;;12.15;;
9264;SDS011;4669;49.594;10.958;2022-12-05T13:26:08;17.20;;;13.50;;
9264;SDS011;4669;49.594;10.958;2022-12-05T13:31:12;14.88;;;12.25;;
9264;SDS011;4669;49.594;10.958;2022-12-05T13:36:17;18.10;;;13.63;;
9264;SDS011;4669;49.594;10.958;2022-12-05T13:41:40;15.68;;;12.25;;
9264;SDS011;4669;49.594;10.958;2022-12-05T13:47:02;15.35;;;12.77;;
9264;SDS011;4669;49.594;10.958;2022-12-05T13:52:07;16.58;;;13.20;;
9264;SDS011;4669;49.594;10.958;2022-12-05T14:02:50;13.13;;;11.00;;
9264;SDS011;4669;49.594;10.958;2022-12-05T14:07:54;14.07;;;11.40;;
9264;SDS011;4669;49.594;10.958;2022-12-05T14:12:59;17.75;;;12.80;;
9264;SDS011;4669;49.594;10.958;2022-12-05T14:18:08;13.43;;;11.30;;
9264;SDS011;4669;49.594;10.958;2022-12-05T14:23:17;14.05;;;12.10;;
9264;SDS011;4669;49.594;10.958;2022-12-05T14:28:47;17.42;;;13.63;;
9264;SDS011;4669;49.594;10.958;2022-12-05T14:34:04;16.77;;;14.00;;
9264;SDS011;4669;49.594;10.958;2022-12-05T14:39:19;19.77;;;14.02;;
9264;SDS011;4669;49.594;10.958;2022-12-05T14:44:23;23.42;;;15.98;;
9264;SDS011;4669;49.594;10.958;2022-12-05T14:49:35;23.25;;;15.73;;
9264;SDS011;4669;49.594;10.958;2022-12-05T14:55:02;20.45;;;16.42;;
9264;SDS011;4669;49.594;10.958;2022-12-05T15:00:13;34.05;;;27.98;;
9264;SDS011;4669;49.594;10.958;2022-12-05T15:05:22;29.38;;;22.27;;
9264;SDS011;4669;49.594;10.958;2022-12-05T15:10:27;20.58;;;16.05;;
9264;SDS011;4669;49.594;10.958;2022-12-05T15:15:34;21.25;;;16.83;;
9264;SDS011;4669;49.594;10.958;2022-12-05T15:20:43;19.48;;;16.00;;
9264;SDS011;4669;49.594;10.958;2022-12-05T15:25:50;21.15;;;15.43;;
9264;SDS011;4669;49.594;10.958;2022-12-05T15:30:55;20.27;;;16.02;;
9264;SDS011;4669;49.594;10.958;2022-12-05T15:35:57;19.55;;;15.27;;
9264;SDS011;4669;49.594;10.958;2022-12-05T15:41:00;20.02;;;14.32;;
9264;SDS011;4669;49.594;10.958;2022-12-05T15:46:13;18.17;;;13.85;;
9264;SDS011;4669;49.594;10.958;2022-12-05T15:51:24;15.98;;;12.32;;
9264;SDS011;4669;49.594;10.958;2022-12-05T15:56:32;30.60;;;23.88;;
9264;SDS011;4669;49.594;10.958;2022-12-05T16:01:40;17.42;;;11.88;;
9264;SDS011;4669;49.594;10.958;2022-12-05T16:06:47;12.27;;;10.07;;
9264;SDS011;4669;49.594;10.958;2022-12-05T16:11:52;11.95;;;9.57;;
9264;SDS011;4669;49.594;10.958;2022-12-05T16:16:57;12.82;;;9.40;;
9264;SDS011;4669;49.594;10.958;2022-12-05T16:22:05;9.68;;;8.13;;
9264;SDS011;4669;49.594;10.958;2022-12-05T16:27:12;9.18;;;8.18;;
9264;SDS011;4669;49.594;10.958;2022-12-05T16:32:18;10.15;;;8.20;;
9264;SDS011;4669;49.594;10.958;2022-12-05T16:37:24;8.23;;;7.10;;
9264;SDS011;4669;49.594;10.958;2022-12-05T16:42:28;11.60;;;10.50;;
9264;SDS011;4669;49.594;10.958;2022-12-05T16:52:59;11.80;;;10.38;;
9264;SDS011;4669;49.594;10.958;2022-12-05T16:58:02;11.13;;;9.73;;
9264;SDS011;4669;49.594;10.958;2022-12-05T17:03:07;8.35;;;7.55;;
9264;SDS011;4669;49.594;10.958;2022-12-05T17:08:11;12.20;;;8.27;;
9264;SDS011;4669;49.594;10.958;2022-12-05T17:13:13;8.68;;;7.60;;
9264;SDS011;4669;49.594;10.958;2022-12-05T17:18:19;8.23;;;7.43;;
9264;SDS011;4669;49.594;10.958;2022-12-05T17:23:21;9.07;;;7.25;;
9264;SDS011;4669;49.594;10.958;2022-12-05T17:28:23;8.50;;;7.63;;
9264;SDS011;4669;49.594;10.958;2022-12-05T17:33:27;12.27;;;10.95;;
9264;SDS011;4669;49.594;10.958;2022-12-05T17:38:29;10.05;;;9.05;;
9264;SDS011;4669;49.594;10.958;2022-12-05T17:43:31;9.25;;;8.15;;
9264;SDS011;4669;49.594;10.958;2022-12-05T17:48:35;11.38;;;10.18;;
9264;SDS011;4669;49.594;10.958;2022-12-05T17:53:37;9.60;;;8.68;;
9264;SDS011;4669;49.594;10.958;2022-12-05T17:58:39;11.02;;;9.93;;
9264;SDS011;4669;49.594;10.958;2022-12-05T18:03:42;12.30;;;10.52;;
9264;SDS011;4669;49.594;10.958;2022-12-05T18:08:44;12.48;;;10.38;;
9264;SDS011;4669;49.594;10.958;2022-12-05T18:13:46;13.07;;;10.80;;
9264;SDS011;4669;49.594;10.958;2022-12-05T18:18:50;13.55;;;11.20;;
9264;SDS011;4669;49.594;10.958;2022-12-05T18:23:52;15.20;;;10.98;;
9264;SDS011;4669;49.594;10.958;2022-12-05T18:28:54;13.93;;;11.50;;
9264;SDS011;4669;49.594;10.958;2022-12-05T18:33:59;14.95;;;12.73;;
9264;SDS011;4669;49.594;10.958;2022-12-05T18:39:01;14.57;;;11.95;;
9264;SDS011;4669;49.594;10.958;2022-12-05T18:44:03;13.13;;;11.73;;
9264;SDS011;4669;49.594;10.958;2022-12-05T18:49:07;14.95;;;12.13;;
9264;SDS011;4669;49.594;10.958;2022-12-05T18:54:11;14.90;;;12.20;;
9264;SDS011;4669;49.594;10.958;2022-12-05T18:59:14;12.68;;;11.38;;
9264;SDS011;4669;49.594;10.958;2022-12-05T19:04:18;15.25;;;12.57;;
9264;SDS011;4669;49.594;10.958;2022-12-05T19:09:21;16.52;;;14.43;;
9264;SDS011;4669;49.594;10.958;2022-12-05T19:14:25;20.27;;;16.42;;
9264;SDS011;4669;49.594;10.958;2022-12-05T19:19:30;14.93;;;13.32;;
9264;SDS011;4669;49.594;10.958;2022-12-05T19:24:32;13.50;;;12.02;;
9264;SDS011;4669;49.594;10.958;2022-12-05T19:29:34;17.48;;;14.35;;
9264;SDS011;4669;49.594;10.958;2022-12-05T19:34:37;14.95;;;13.00;;
9264;SDS011;4669;49.594;10.958;2022-12-05T19:39:39;16.05;;;13.10;;
9264;SDS011;4669;49.594;10.958;2022-12-05T19:44:42;16.73;;;13.75;;
9264;SDS011;4669;49.594;10.958;2022-12-05T19:49:46;15.70;;;12.93;;
9264;SDS011;4669;49.594;10.958;2022-12-05T19:54:48;15.57;;;13.05;;
9264;SDS011;4669;49.594;10.958;2022-12-05T19:59:50;15.35;;;13.32;;
9264;SDS011;4669;49.594;10.958;2022-12-05T20:04:53;15.93;;;13.70;;
9264;SDS011;4669;49.594;10.958;2022-12-05T20:09:55;17.65;;;15.02;;
9264;SDS011;4669;49.594;10.958;2022-12-05T20:14:57;16.23;;;14.15;;
9264;SDS011;4669;49.594;10.958;2022-12-05T20:20:01;19.05;;;16.63;;
9264;SDS011;4669;49.594;10.958;2022-12-05T20:25:04;15.20;;;13.63;;
9264;SDS011;4669;49.594;10.958;2022-12-05T20:30:06;18.25;;;14.05;;
9264;SDS011;4669;49.594;10.958;2022-12-05T20:35:10;15.68;;;13.98;;
9264;SDS011;4669;49.594;10.958;2022-12-05T20:40:12;15.77;;;13.70;;
9264;SDS011;4669;49.594;10.958;2022-12-05T20:45:14;15.68;;;14.00;;
9264;SDS011;4669;49.594;10.958;2022-12-05T20:50:17;16.23;;;13.32;;
9264;SDS011;4669;49.594;10.958;2022-12-05T20:55:19;18.10;;;14.02;;
9264;SDS011;4669;49.594;10.958;2022-12-05T21:00:21;14.07;;;12.60;;
9264;SDS011;4669;49.594;10.958;2022-12-05T21:05:25;15.45;;;13.85;;
9264;SDS011;4669;49.594;10.958;2022-12-05T21:10:27;14.57;;;13.02;;
9264;SDS011;4669;49.594;10.958;2022-12-05T21:15:29;18.27;;;15.65;;
9264;SDS011;4669;49.594;10.958;2022-12-05T21:20:32;16.75;;;14.93;;
9264;SDS011;4669;49.594;10.958;2022-12-05T21:25:34;18.15;;;15.38;;
9264;SDS011;4669;49.594;10.958;2022-12-05T21:30:36;18.75;;;15.32;;
9264;SDS011;4669;49.594;10.958;2022-12-05T21:35:39;17.02;;;14.95;;
9264;SDS011;4669;49.594;10.958;2022-12-05T21:40:41;18.33;;;15.20;;
9264;SDS011;4669;49.594;10.958;2022-12-05T21:45:43;19.85;;;15.82;;
9264;SDS011;4669;49.594;10.958;2022-12-05T21:50:47;20.95;;;18.50;;
9264;SDS011;4669;49.594;10.958;2022-12-05T21:55:57;22.52;;;16.58;;
9264;SDS011;4669;49.594;10.958;2022-12-05T22:00:59;19.95;;;16.23;;
9264;SDS011;4669;49.594;10.958;2022-12-05T22:06:03;23.38;;;17.42;;
9264;SDS011;4669;49.594;10.958;2022-12-05T22:11:07;22.30;;;16.92;;
9264;SDS011;4669;49.594;10.958;2022-12-05T22:16:10;18.60;;;15.55;;
9264;SDS011;4669;49.594;10.958;2022-12-05T22:21:14;17.55;;;14.85;;
9264;SDS011;4669;49.594;10.958;2022-12-05T22:26:18;19.73;;;15.38;;
9264;SDS011;4669;49.594;10.958;2022-12-05T22:31:21;19.13;;;15.10;;
9264;SDS011;4669;49.594;10.958;2022-12-05T22:36:25;16.05;;;13.23;;
9264;SDS011;4669;49.594;10.958;2022-12-05T22:41:27;14.30;;;12.77;;
9264;SDS011;4669;49.594;10.958;2022-12-05T22:46:29;16.42;;;14.52;;
9264;SDS011;4669;49.594;10.958;2022-12-05T22:51:32;18.35;;;14.50;;
9264;SDS011;4669;49.594;10.958;2022-12-05T22:56:34;16.90;;;14.45;;
